Impacts METAR Board
IDs:

KTPA - Tampa Intl Arpt, FL, US

Updated at: 1100 UTC 24 Jan 2019
Potential Impact None Slight Moderate High
Time 23/23Z 24/00Z 24/01Z 24/02Z 24/03Z 24/04Z 24/05Z 24/06Z 24/07Z 24/08Z 24/09Z 24/10Z 24/11Z
Temp77 75 74 74 72 71 71 72 73 73 73 71 67
Dewpt60 60 62 63 63 63 63 64 65 66 68 67 64
Altim30.01 30.00 30.01 29.98 29.96 29.94 29.92 29.89 29.90 29.89 29.88 29.89 29.90
VIS10 10 10 10 10 10 10 10 10 10 10 8 4
CIG-- -- 45 38 -- -- 35 24 23 47 42 38 35
CoverSCTSCTBKNBKNSCTSCTBKNOVCOVCOVCOVCOVCOVC
FltCatVFRVFRVFRVFRVFRVFRVFRMVFRMVFRVFRVFRVFRMVFR
WX----------------------VCTS-RA BR
WDir150140140140140150160160170180180200210
WSpd9 6 7 10 10 10 11 11 12 15 19 17 14
WGst-- -- 15 18 17 19 -- 17 21 24 27 22 --
Raw hourly METARs
KTPA 232253Z 15009KT 10SM SCT050 SCT250 25/16 A3001 RMK AO2 SLP163 T02500156
KTPA 232353Z 14006KT 10SM FEW050 SCT250 24/16 A3000 RMK AO2 SLP159 T02390156 10267 20239 58012
KTPA 240053Z 14007G15KT 10SM BKN045 23/17 A3001 RMK AO2 SLP161 T02330167
KTPA 240153Z 14010G18KT 10SM BKN038 23/17 A2998 RMK AO2 SLP153 T02330172
KTPA 240253Z 14010G17KT 10SM SCT042 SCT250 22/17 A2996 RMK AO2 SLP146 T02220172 58014
KTPA 240353Z 15010G19KT 10SM FEW042 SCT250 22/17 A2994 RMK AO2 SLP137 T02170172
KTPA 240453Z 16011KT 10SM SCT026 BKN035 BKN250 22/17 A2992 RMK AO2 SLP131 T02170172 402670161
KTPA 240600Z 16011G17KT 10SM OVC024 22/18 A2989 RMK AO2 T02220178
KTPA 240653Z 17012G21KT 10SM OVC023 23/18 A2990 RMK AO2 SLP125 T02280183
KTPA 240753Z 18015G24KT 10SM FEW023 BKN047 OVC120 23/19 A2989 RMK AO2 PK WND 17026/0704 SLP122 T02280189
KTPA 240853Z 18019G27KT 10SM FEW021 BKN042 OVC055 23/20 A2988 RMK AO2 PK WND 17029/0838 SLP119 T02280200 58001
KTPA 241002Z 20017G22KT 8SM VCTS FEW015 BKN038 OVC050 22/19 A2989 RMK AO2 LTG DSNT ALQDS T02170194
KTPA 241100Z 21014KT 4SM -RA BR FEW012 BKN035CB OVC090 19/18 A2990 RMK AO2 LTG DSNT NE-SE OCNL LTGICCA DSNT N-NE AND S-SW CB DSNT N-NE ANS S-SW P0003 T01940178



Page loaded:  11:19 UTC  |   03:19 AM Pacific  |   04:19 AM Mountain  |   05:19 AM Central  |   06:19 AM Eastern

 

ADVISORIES

FORECASTS

FORECASTS

OBSERVATIONS

USER TOOLS

ABOUT US